This is the latest recevied weather packets stored in our database for station/object LRTM. If no packets are shown the sender has not sent any weather packets the latest 10 day(s).
| Time | Temp. | Humidity | Pressure | Rain* | Wind** | Luminosity | Snow |
|---|---|---|---|---|---|---|---|
| 1777718906 | 16.11° C | 31% | 1022 hPa | - | - | - | - |
| 1777718007 | 16.11° C | 31% | 1022 hPa | - | - | - | - |
| 1777717103 | 15° C | 34% | 1023 hPa | - | - | - | - |
| 1777716206 | 15° C | 34% | 1023 hPa | - | - | - | - |
| 1777715303 | 13.89° C | 36% | 1023 hPa | - | - | - | - |
| 1777714485 | 13.89° C | 36% | - | - | - | - | - |
| 1777713506 | 13.89° C | 41% | 1023 hPa | - | - | - | - |
| 1777712606 | 13.89° C | 41% | 1023 hPa | - | - | - | - |
| 1777711714 | 12.78° C | 44% | 1023 hPa | - | - | - | - |
| 1777710807 | 12.78° C | 44% | 1023 hPa | - | - | - | - |
| 1777709906 | 12.22° C | 54% | 1024 hPa | - | - | - | - |
| 1777709006 | 12.22° C | 54% | 1024 hPa | - | - | - | - |
| 1777708106 | 10° C | 62% | 1024 hPa | - | - | - | - |
| 1777707206 | 10° C | 62% | 1024 hPa | - | - | - | - |
| 1777706307 | 8.89° C | 62% | 1024 hPa | - | - | - | - |
| 1777705407 | 8.89° C | 62% | 1024 hPa | - | - | - | - |
| 1777704506 | 7.78° C | 71% | 1023 hPa | - | - | - | - |
| 1777703606 | 7.78° C | 71% | 1023 hPa | - | - | - | - |
| 1777702707 | 7.78° C | 66% | 1023 hPa | - | - | - | - |
| 1777701807 | 7.78° C | 66% | 1023 hPa | - | - | - | - |
| 1777700906 | 7.22° C | 76% | 1023 hPa | - | - | - | - |
| 1777700007 | 7.22° C | 76% | 1023 hPa | - | - | - | - |
| 1777699106 | 7.22° C | 71% | 1023 hPa | - | - | - | - |
| 1777698206 | 7.22° C | 71% | 1023 hPa | - | - | - | - |
| 1777697306 | 7.22° C | 71% | 1023 hPa | - | - | - | - |
* Rain since midnight (hover to see other rain measurements)
** Current wind speed in m/s (hover to see current wind gust speed)